sensor_id;sensor_type;location;lat;lon;timestamp;P1;durP1;ratioP1;P2;durP2;ratioP2
27533;SDS011;14973;51.460;7.008;2022-11-20T00:01:08;78.03;;;31.60;;
27533;SDS011;14973;51.460;7.008;2022-11-20T00:03:40;77.68;;;32.25;;
27533;SDS011;14973;51.460;7.008;2022-11-20T00:06:08;76.75;;;31.58;;
27533;SDS011;14973;51.460;7.008;2022-11-20T00:08:35;74.18;;;30.70;;
27533;SDS011;14973;51.460;7.008;2022-11-20T00:11:02;76.07;;;33.28;;
27533;SDS011;14973;51.460;7.008;2022-11-20T00:13:32;74.00;;;32.35;;
27533;SDS011;14973;51.460;7.008;2022-11-20T00:15:59;76.97;;;30.88;;
27533;SDS011;14973;51.460;7.008;2022-11-20T00:18:26;82.13;;;32.20;;
27533;SDS011;14973;51.460;7.008;2022-11-20T00:20:52;79.60;;;33.35;;
27533;SDS011;14973;51.460;7.008;2022-11-20T00:23:17;77.25;;;32.55;;
27533;SDS011;14973;51.460;7.008;2022-11-20T00:25:43;83.60;;;33.78;;
27533;SDS011;14973;51.460;7.008;2022-11-20T00:28:09;83.53;;;34.20;;
27533;SDS011;14973;51.460;7.008;2022-11-20T00:30:34;75.50;;;32.80;;
27533;SDS011;14973;51.460;7.008;2022-11-20T00:33:00;86.35;;;34.60;;
27533;SDS011;14973;51.460;7.008;2022-11-20T00:35:25;75.63;;;32.80;;
27533;SDS011;14973;51.460;7.008;2022-11-20T00:37:51;82.13;;;33.67;;
27533;SDS011;14973;51.460;7.008;2022-11-20T00:40:16;84.45;;;33.72;;
27533;SDS011;14973;51.460;7.008;2022-11-20T00:42:42;72.45;;;31.00;;
27533;SDS011;14973;51.460;7.008;2022-11-20T00:45:08;78.80;;;34.03;;
27533;SDS011;14973;51.460;7.008;2022-11-20T00:47:33;90.13;;;38.15;;
27533;SDS011;14973;51.460;7.008;2022-11-20T00:49:59;83.80;;;36.10;;
27533;SDS011;14973;51.460;7.008;2022-11-20T00:52:24;91.72;;;37.63;;
27533;SDS011;14973;51.460;7.008;2022-11-20T00:54:50;90.38;;;38.80;;
27533;SDS011;14973;51.460;7.008;2022-11-20T00:57:16;100.03;;;37.83;;
27533;SDS011;14973;51.460;7.008;2022-11-20T00:59:41;83.78;;;37.17;;
27533;SDS011;14973;51.460;7.008;2022-11-20T01:02:07;97.20;;;37.72;;
27533;SDS011;14973;51.460;7.008;2022-11-20T01:04:32;89.22;;;37.22;;
27533;SDS011;14973;51.460;7.008;2022-11-20T01:06:58;95.40;;;39.20;;
27533;SDS011;14973;51.460;7.008;2022-11-20T01:09:23;89.03;;;36.70;;
27533;SDS011;14973;51.460;7.008;2022-11-20T01:11:49;94.22;;;38.45;;
27533;SDS011;14973;51.460;7.008;2022-11-20T01:14:16;93.80;;;38.50;;
27533;SDS011;14973;51.460;7.008;2022-11-20T01:16:44;93.93;;;38.55;;
27533;SDS011;14973;51.460;7.008;2022-11-20T01:19:14;94.68;;;38.03;;
27533;SDS011;14973;51.460;7.008;2022-11-20T01:21:42;93.60;;;39.25;;
27533;SDS011;14973;51.460;7.008;2022-11-20T01:24:11;94.15;;;40.67;;
27533;SDS011;14973;51.460;7.008;2022-11-20T01:26:38;94.63;;;38.20;;
27533;SDS011;14973;51.460;7.008;2022-11-20T01:29:06;101.55;;;41.45;;
27533;SDS011;14973;51.460;7.008;2022-11-20T01:31:37;97.55;;;40.25;;
27533;SDS011;14973;51.460;7.008;2022-11-20T01:34:06;94.75;;;38.40;;
27533;SDS011;14973;51.460;7.008;2022-11-20T01:36:35;95.82;;;38.28;;
27533;SDS011;14973;51.460;7.008;2022-11-20T01:39:06;91.32;;;37.67;;
27533;SDS011;14973;51.460;7.008;2022-11-20T01:41:35;98.57;;;38.55;;
27533;SDS011;14973;51.460;7.008;2022-11-20T01:44:20;96.65;;;41.05;;
27533;SDS011;14973;51.460;7.008;2022-11-20T01:46:58;103.25;;;39.50;;
27533;SDS011;14973;51.460;7.008;2022-11-20T01:49:37;94.47;;;37.33;;
27533;SDS011;14973;51.460;7.008;2022-11-20T01:52:09;84.15;;;37.00;;
27533;SDS011;14973;51.460;7.008;2022-11-20T01:55:13;99.63;;;38.70;;
27533;SDS011;14973;51.460;7.008;2022-11-20T01:57:42;89.90;;;38.78;;
27533;SDS011;14973;51.460;7.008;2022-11-20T02:00:12;96.72;;;39.28;;
27533;SDS011;14973;51.460;7.008;2022-11-20T02:02:41;89.88;;;36.92;;
27533;SDS011;14973;51.460;7.008;2022-11-20T02:07:59;81.85;;;34.70;;
27533;SDS011;14973;51.460;7.008;2022-11-20T02:10:26;87.43;;;37.70;;
27533;SDS011;14973;51.460;7.008;2022-11-20T02:12:53;88.95;;;37.40;;
27533;SDS011;14973;51.460;7.008;2022-11-20T02:15:37;96.13;;;39.33;;
27533;SDS011;14973;51.460;7.008;2022-11-20T02:18:03;84.70;;;36.67;;
27533;SDS011;14973;51.460;7.008;2022-11-20T02:20:30;80.03;;;35.47;;
27533;SDS011;14973;51.460;7.008;2022-11-20T02:22:57;83.75;;;37.95;;
27533;SDS011;14973;51.460;7.008;2022-11-20T02:25:27;82.13;;;36.38;;
27533;SDS011;14973;51.460;7.008;2022-11-20T02:27:55;83.90;;;37.08;;
27533;SDS011;14973;51.460;7.008;2022-11-20T02:30:21;86.40;;;35.72;;
27533;SDS011;14973;51.460;7.008;2022-11-20T02:32:46;80.28;;;35.55;;
27533;SDS011;14973;51.460;7.008;2022-11-20T02:37:44;80.32;;;36.15;;
27533;SDS011;14973;51.460;7.008;2022-11-20T02:40:12;80.38;;;33.90;;
27533;SDS011;14973;51.460;7.008;2022-11-20T02:42:38;77.20;;;34.70;;
27533;SDS011;14973;51.460;7.008;2022-11-20T02:45:04;83.30;;;35.72;;
27533;SDS011;14973;51.460;7.008;2022-11-20T02:47:31;84.03;;;35.88;;
27533;SDS011;14973;51.460;7.008;2022-11-20T02:49:57;89.05;;;38.50;;
27533;SDS011;14973;51.460;7.008;2022-11-20T02:52:23;77.70;;;34.30;;
27533;SDS011;14973;51.460;7.008;2022-11-20T02:54:49;81.18;;;34.60;;
27533;SDS011;14973;51.460;7.008;2022-11-20T02:57:14;81.68;;;35.38;;
27533;SDS011;14973;51.460;7.008;2022-11-20T02:59:40;85.32;;;34.78;;
27533;SDS011;14973;51.460;7.008;2022-11-20T03:02:06;74.63;;;33.15;;
27533;SDS011;14973;51.460;7.008;2022-11-20T03:04:31;79.30;;;32.67;;
27533;SDS011;14973;51.460;7.008;2022-11-20T03:06:57;75.93;;;33.05;;
27533;SDS011;14973;51.460;7.008;2022-11-20T03:09:23;80.78;;;32.78;;
27533;SDS011;14973;51.460;7.008;2022-11-20T03:11:48;72.80;;;33.08;;
27533;SDS011;14973;51.460;7.008;2022-11-20T03:14:14;71.57;;;32.13;;
27533;SDS011;14973;51.460;7.008;2022-11-20T03:16:39;68.53;;;30.92;;
27533;SDS011;14973;51.460;7.008;2022-11-20T03:19:05;72.30;;;31.75;;
27533;SDS011;14973;51.460;7.008;2022-11-20T03:21:34;66.85;;;30.45;;
27533;SDS011;14973;51.460;7.008;2022-11-20T03:24:00;69.72;;;30.27;;
27533;SDS011;14973;51.460;7.008;2022-11-20T03:26:27;62.70;;;29.15;;
27533;SDS011;14973;51.460;7.008;2022-11-20T03:28:54;68.32;;;30.48;;
27533;SDS011;14973;51.460;7.008;2022-11-20T03:31:22;68.00;;;31.48;;
27533;SDS011;14973;51.460;7.008;2022-11-20T03:33:59;58.33;;;28.08;;
27533;SDS011;14973;51.460;7.008;2022-11-20T03:36:25;59.22;;;28.08;;
27533;SDS011;14973;51.460;7.008;2022-11-20T03:38:52;59.92;;;28.13;;
27533;SDS011;14973;51.460;7.008;2022-11-20T03:41:23;62.92;;;28.52;;
27533;SDS011;14973;51.460;7.008;2022-11-20T03:43:56;61.33;;;27.95;;
27533;SDS011;14973;51.460;7.008;2022-11-20T03:46:24;61.90;;;29.42;;
27533;SDS011;14973;51.460;7.008;2022-11-20T03:48:51;60.80;;;28.35;;
27533;SDS011;14973;51.460;7.008;2022-11-20T03:53:46;61.35;;;28.45;;
27533;SDS011;14973;51.460;7.008;2022-11-20T03:56:13;64.45;;;28.48;;
27533;SDS011;14973;51.460;7.008;2022-11-20T03:58:41;63.70;;;28.02;;
27533;SDS011;14973;51.460;7.008;2022-11-20T04:01:08;58.03;;;27.63;;
27533;SDS011;14973;51.460;7.008;2022-11-20T04:03:38;60.72;;;28.40;;
27533;SDS011;14973;51.460;7.008;2022-11-20T04:06:09;67.85;;;27.45;;
27533;SDS011;14973;51.460;7.008;2022-11-20T04:08:41;55.63;;;26.83;;
27533;SDS011;14973;51.460;7.008;2022-11-20T04:11:23;58.15;;;28.13;;
27533;SDS011;14973;51.460;7.008;2022-11-20T04:14:11;65.47;;;28.70;;
27533;SDS011;14973;51.460;7.008;2022-11-20T04:16:39;57.60;;;26.50;;
27533;SDS011;14973;51.460;7.008;2022-11-20T04:19:06;59.75;;;26.67;;
27533;SDS011;14973;51.460;7.008;2022-11-20T04:21:35;56.42;;;26.83;;
27533;SDS011;14973;51.460;7.008;2022-11-20T04:24:01;54.28;;;26.15;;
27533;SDS011;14973;51.460;7.008;2022-11-20T04:26:27;61.42;;;28.30;;
27533;SDS011;14973;51.460;7.008;2022-11-20T04:28:54;59.83;;;27.75;;
27533;SDS011;14973;51.460;7.008;2022-11-20T04:31:22;54.03;;;26.48;;
27533;SDS011;14973;51.460;7.008;2022-11-20T04:33:50;56.35;;;26.70;;
27533;SDS011;14973;51.460;7.008;2022-11-20T04:36:17;58.13;;;27.98;;
27533;SDS011;14973;51.460;7.008;2022-11-20T04:38:43;63.20;;;29.13;;
27533;SDS011;14973;51.460;7.008;2022-11-20T04:41:15;57.08;;;26.98;;
27533;SDS011;14973;51.460;7.008;2022-11-20T04:43:45;57.13;;;27.83;;
27533;SDS011;14973;51.460;7.008;2022-11-20T04:46:15;62.40;;;26.20;;
27533;SDS011;14973;51.460;7.008;2022-11-20T04:48:41;58.33;;;28.27;;
27533;SDS011;14973;51.460;7.008;2022-11-20T04:51:07;67.68;;;29.40;;
27533;SDS011;14973;51.460;7.008;2022-11-20T04:53:32;57.45;;;27.70;;
27533;SDS011;14973;51.460;7.008;2022-11-20T04:56:02;63.10;;;28.10;;
27533;SDS011;14973;51.460;7.008;2022-11-20T04:58:29;62.90;;;27.75;;
27533;SDS011;14973;51.460;7.008;2022-11-20T05:01:05;66.07;;;27.90;;
27533;SDS011;14973;51.460;7.008;2022-11-20T05:03:31;65.68;;;28.48;;
27533;SDS011;14973;51.460;7.008;2022-11-20T05:05:59;61.58;;;27.92;;
27533;SDS011;14973;51.460;7.008;2022-11-20T05:08:26;62.83;;;29.17;;
27533;SDS011;14973;51.460;7.008;2022-11-20T05:10:52;63.03;;;28.73;;
27533;SDS011;14973;51.460;7.008;2022-11-20T05:13:17;68.07;;;28.65;;
27533;SDS011;14973;51.460;7.008;2022-11-20T05:15:43;61.95;;;27.80;;
27533;SDS011;14973;51.460;7.008;2022-11-20T05:18:08;61.92;;;27.92;;
27533;SDS011;14973;51.460;7.008;2022-11-20T05:20:34;65.85;;;30.02;;
27533;SDS011;14973;51.460;7.008;2022-11-20T05:23:01;69.47;;;29.90;;
27533;SDS011;14973;51.460;7.008;2022-11-20T05:25:27;67.10;;;29.45;;
27533;SDS011;14973;51.460;7.008;2022-11-20T05:27:53;62.15;;;28.83;;
27533;SDS011;14973;51.460;7.008;2022-11-20T05:30:18;71.30;;;30.75;;
27533;SDS011;14973;51.460;7.008;2022-11-20T05:32:44;75.75;;;32.45;;
27533;SDS011;14973;51.460;7.008;2022-11-20T05:35:10;61.10;;;29.88;;
27533;SDS011;14973;51.460;7.008;2022-11-20T05:37:35;65.20;;;28.83;;
27533;SDS011;14973;51.460;7.008;2022-11-20T05:40:01;68.45;;;29.38;;
27533;SDS011;14973;51.460;7.008;2022-11-20T05:42:29;64.85;;;29.38;;
27533;SDS011;14973;51.460;7.008;2022-11-20T05:44:56;66.63;;;30.02;;
27533;SDS011;14973;51.460;7.008;2022-11-20T05:47:22;62.78;;;28.15;;
27533;SDS011;14973;51.460;7.008;2022-11-20T05:49:48;62.47;;;28.63;;
27533;SDS011;14973;51.460;7.008;2022-11-20T05:52:14;60.58;;;28.80;;
27533;SDS011;14973;51.460;7.008;2022-11-20T05:54:39;63.42;;;28.90;;
27533;SDS011;14973;51.460;7.008;2022-11-20T05:57:05;66.45;;;29.05;;
27533;SDS011;14973;51.460;7.008;2022-11-20T05:59:30;61.63;;;28.67;;
27533;SDS011;14973;51.460;7.008;2022-11-20T06:01:56;65.40;;;29.63;;
27533;SDS011;14973;51.460;7.008;2022-11-20T06:04:22;61.80;;;28.88;;
27533;SDS011;14973;51.460;7.008;2022-11-20T06:06:47;56.05;;;28.20;;
27533;SDS011;14973;51.460;7.008;2022-11-20T06:09:13;61.67;;;28.27;;
27533;SDS011;14973;51.460;7.008;2022-11-20T06:11:38;65.45;;;29.50;;
27533;SDS011;14973;51.460;7.008;2022-11-20T06:14:04;60.60;;;27.17;;
27533;SDS011;14973;51.460;7.008;2022-11-20T06:16:30;59.00;;;27.20;;
27533;SDS011;14973;51.460;7.008;2022-11-20T06:18:55;57.83;;;27.45;;
27533;SDS011;14973;51.460;7.008;2022-11-20T06:21:21;63.97;;;28.67;;
27533;SDS011;14973;51.460;7.008;2022-11-20T06:23:48;62.00;;;28.10;;
27533;SDS011;14973;51.460;7.008;2022-11-20T06:26:18;59.83;;;28.15;;
27533;SDS011;14973;51.460;7.008;2022-11-20T06:28:46;54.50;;;26.73;;
27533;SDS011;14973;51.460;7.008;2022-11-20T06:31:12;61.60;;;26.92;;
27533;SDS011;14973;51.460;7.008;2022-11-20T06:33:40;60.42;;;27.50;;
27533;SDS011;14973;51.460;7.008;2022-11-20T06:36:06;62.00;;;28.05;;
27533;SDS011;14973;51.460;7.008;2022-11-20T06:38:32;62.22;;;27.73;;
27533;SDS011;14973;51.460;7.008;2022-11-20T06:40:57;63.08;;;29.35;;
27533;SDS011;14973;51.460;7.008;2022-11-20T06:43:23;63.83;;;28.00;;
27533;SDS011;14973;51.460;7.008;2022-11-20T06:45:53;63.35;;;28.42;;
27533;SDS011;14973;51.460;7.008;2022-11-20T06:48:21;61.97;;;28.42;;
27533;SDS011;14973;51.460;7.008;2022-11-20T06:50:47;56.58;;;27.50;;
27533;SDS011;14973;51.460;7.008;2022-11-20T06:53:13;62.90;;;28.67;;
27533;SDS011;14973;51.460;7.008;2022-11-20T06:55:42;60.00;;;27.65;;
27533;SDS011;14973;51.460;7.008;2022-11-20T06:58:08;68.57;;;30.73;;
27533;SDS011;14973;51.460;7.008;2022-11-20T07:00:34;66.65;;;28.60;;
27533;SDS011;14973;51.460;7.008;2022-11-20T07:03:03;67.18;;;29.27;;
27533;SDS011;14973;51.460;7.008;2022-11-20T07:05:30;68.00;;;31.08;;
27533;SDS011;14973;51.460;7.008;2022-11-20T07:07:56;73.63;;;32.15;;
27533;SDS011;14973;51.460;7.008;2022-11-20T07:10:22;67.43;;;30.45;;
27533;SDS011;14973;51.460;7.008;2022-11-20T07:12:49;76.32;;;32.15;;
27533;SDS011;14973;51.460;7.008;2022-11-20T07:15:15;76.40;;;31.45;;
27533;SDS011;14973;51.460;7.008;2022-11-20T07:17:41;74.43;;;31.00;;
27533;SDS011;14973;51.460;7.008;2022-11-20T07:20:07;69.97;;;31.63;;
27533;SDS011;14973;51.460;7.008;2022-11-20T07:22:33;68.95;;;31.13;;
27533;SDS011;14973;51.460;7.008;2022-11-20T07:24:59;71.40;;;32.40;;
27533;SDS011;14973;51.460;7.008;2022-11-20T07:27:24;75.38;;;32.40;;
27533;SDS011;14973;51.460;7.008;2022-11-20T07:29:50;76.38;;;33.25;;
27533;SDS011;14973;51.460;7.008;2022-11-20T07:32:15;69.93;;;31.05;;
27533;SDS011;14973;51.460;7.008;2022-11-20T07:34:41;73.07;;;32.20;;
27533;SDS011;14973;51.460;7.008;2022-11-20T07:37:07;69.95;;;31.58;;
27533;SDS011;14973;51.460;7.008;2022-11-20T07:39:32;82.30;;;36.65;;
27533;SDS011;14973;51.460;7.008;2022-11-20T07:41:58;78.75;;;34.35;;
27533;SDS011;14973;51.460;7.008;2022-11-20T07:44:23;73.30;;;33.97;;
27533;SDS011;14973;51.460;7.008;2022-11-20T07:46:49;68.07;;;31.75;;
27533;SDS011;14973;51.460;7.008;2022-11-20T07:49:15;73.80;;;32.65;;
27533;SDS011;14973;51.460;7.008;2022-11-20T07:51:40;72.40;;;32.85;;
27533;SDS011;14973;51.460;7.008;2022-11-20T07:54:06;86.07;;;40.10;;
27533;SDS011;14973;51.460;7.008;2022-11-20T07:56:31;71.03;;;32.28;;
27533;SDS011;14973;51.460;7.008;2022-11-20T07:58:57;76.55;;;32.28;;
27533;SDS011;14973;51.460;7.008;2022-11-20T08:01:22;70.15;;;32.78;;
27533;SDS011;14973;51.460;7.008;2022-11-20T08:03:48;66.75;;;30.50;;
27533;SDS011;14973;51.460;7.008;2022-11-20T08:06:14;72.95;;;31.48;;
27533;SDS011;14973;51.460;7.008;2022-11-20T08:08:39;63.30;;;30.33;;
27533;SDS011;14973;51.460;7.008;2022-11-20T08:11:05;73.72;;;31.98;;
27533;SDS011;14973;51.460;7.008;2022-11-20T08:13:50;60.43;;;30.60;;
27533;SDS011;14973;51.460;7.008;2022-11-20T08:16:34;70.45;;;32.03;;
27533;SDS011;14973;51.460;7.008;2022-11-20T08:18:59;66.93;;;30.77;;
27533;SDS011;14973;51.460;7.008;2022-11-20T08:21:25;64.32;;;30.02;;
27533;SDS011;14973;51.460;7.008;2022-11-20T08:23:50;69.13;;;31.55;;
27533;SDS011;14973;51.460;7.008;2022-11-20T08:26:16;65.30;;;30.90;;
27533;SDS011;14973;51.460;7.008;2022-11-20T08:28:42;70.60;;;32.33;;
27533;SDS011;14973;51.460;7.008;2022-11-20T08:31:09;71.53;;;32.72;;
27533;SDS011;14973;51.460;7.008;2022-11-20T08:33:34;70.45;;;31.23;;
27533;SDS011;14973;51.460;7.008;2022-11-20T08:36:01;63.53;;;30.75;;
27533;SDS011;14973;51.460;7.008;2022-11-20T08:38:27;68.63;;;31.65;;
27533;SDS011;14973;51.460;7.008;2022-11-20T08:40:56;68.28;;;31.63;;
27533;SDS011;14973;51.460;7.008;2022-11-20T08:43:41;74.93;;;32.92;;
27533;SDS011;14973;51.460;7.008;2022-11-20T08:46:07;71.90;;;31.50;;
27533;SDS011;14973;51.460;7.008;2022-11-20T08:48:33;64.78;;;30.52;;
27533;SDS011;14973;51.460;7.008;2022-11-20T08:50:58;71.18;;;30.63;;
27533;SDS011;14973;51.460;7.008;2022-11-20T08:53:24;61.85;;;29.85;;
27533;SDS011;14973;51.460;7.008;2022-11-20T08:55:51;69.85;;;31.60;;
27533;SDS011;14973;51.460;7.008;2022-11-20T08:58:17;56.92;;;29.33;;
27533;SDS011;14973;51.460;7.008;2022-11-20T09:00:42;58.03;;;28.38;;
27533;SDS011;14973;51.460;7.008;2022-11-20T09:03:08;61.63;;;28.08;;
27533;SDS011;14973;51.460;7.008;2022-11-20T09:05:34;54.83;;;27.13;;
27533;SDS011;14973;51.460;7.008;2022-11-20T09:07:59;53.53;;;25.30;;
27533;SDS011;14973;51.460;7.008;2022-11-20T09:10:26;45.15;;;22.73;;
27533;SDS011;14973;51.460;7.008;2022-11-20T09:12:52;53.10;;;24.85;;
27533;SDS011;14973;51.460;7.008;2022-11-20T09:15:18;58.00;;;24.95;;
27533;SDS011;14973;51.460;7.008;2022-11-20T09:17:54;50.60;;;22.05;;
27533;SDS011;14973;51.460;7.008;2022-11-20T09:20:21;67.25;;;31.33;;
27533;SDS011;14973;51.460;7.008;2022-11-20T09:22:47;55.33;;;24.67;;
27533;SDS011;14973;51.460;7.008;2022-11-20T09:25:13;44.40;;;21.33;;
27533;SDS011;14973;51.460;7.008;2022-11-20T09:27:39;47.30;;;20.75;;
27533;SDS011;14973;51.460;7.008;2022-11-20T09:30:06;38.42;;;19.13;;
27533;SDS011;14973;51.460;7.008;2022-11-20T09:32:32;37.25;;;19.02;;
27533;SDS011;14973;51.460;7.008;2022-11-20T09:34:58;40.78;;;19.40;;
27533;SDS011;14973;51.460;7.008;2022-11-20T09:37:24;38.13;;;18.10;;
27533;SDS011;14973;51.460;7.008;2022-11-20T09:39:49;34.05;;;16.77;;
27533;SDS011;14973;51.460;7.008;2022-11-20T09:42:32;36.60;;;17.70;;
27533;SDS011;14973;51.460;7.008;2022-11-20T09:45:15;38.75;;;17.65;;
27533;SDS011;14973;51.460;7.008;2022-11-20T09:47:59;33.90;;;16.98;;
27533;SDS011;14973;51.460;7.008;2022-11-20T09:50:46;32.55;;;14.80;;
27533;SDS011;14973;51.460;7.008;2022-11-20T09:56:11;31.67;;;15.77;;
27533;SDS011;14973;51.460;7.008;2022-11-20T09:58:41;31.58;;;14.13;;
27533;SDS011;14973;51.460;7.008;2022-11-20T10:06:17;31.15;;;16.60;;
27533;SDS011;14973;51.460;7.008;2022-11-20T10:08:56;33.38;;;16.25;;
27533;SDS011;14973;51.460;7.008;2022-11-20T10:11:41;29.42;;;15.25;;
27533;SDS011;14973;51.460;7.008;2022-11-20T10:14:39;31.98;;;15.20;;
27533;SDS011;14973;51.460;7.008;2022-11-20T10:25:47;35.08;;;17.05;;
27533;SDS011;14973;51.460;7.008;2022-11-20T10:31:31;26.30;;;13.05;;
27533;SDS011;14973;51.460;7.008;2022-11-20T10:34:03;28.98;;;12.80;;
27533;SDS011;14973;51.460;7.008;2022-11-20T10:39:07;24.38;;;11.75;;
27533;SDS011;14973;51.460;7.008;2022-11-20T10:41:48;26.05;;;13.57;;
27533;SDS011;14973;51.460;7.008;2022-11-20T10:44:17;24.33;;;12.68;;
27533;SDS011;14973;51.460;7.008;2022-11-20T10:47:05;32.22;;;14.90;;
27533;SDS011;14973;51.460;7.008;2022-11-20T10:49:36;29.85;;;14.50;;
27533;SDS011;14973;51.460;7.008;2022-11-20T10:52:09;32.55;;;15.57;;
27533;SDS011;14973;51.460;7.008;2022-11-20T11:00:12;28.90;;;13.85;;
27533;SDS011;14973;51.460;7.008;2022-11-20T11:02:52;33.88;;;15.95;;
27533;SDS011;14973;51.460;7.008;2022-11-20T11:08:17;30.77;;;16.00;;
27533;SDS011;14973;51.460;7.008;2022-11-20T11:10:54;34.08;;;15.95;;
27533;SDS011;14973;51.460;7.008;2022-11-20T11:13:24;33.45;;;16.67;;
27533;SDS011;14973;51.460;7.008;2022-11-20T11:15:52;35.72;;;17.25;;
27533;SDS011;14973;51.460;7.008;2022-11-20T11:18:28;34.72;;;17.63;;
27533;SDS011;14973;51.460;7.008;2022-11-20T11:20:59;32.78;;;16.80;;
27533;SDS011;14973;51.460;7.008;2022-11-20T11:23:38;36.13;;;17.60;;
27533;SDS011;14973;51.460;7.008;2022-11-20T11:26:19;34.33;;;17.15;;
27533;SDS011;14973;51.460;7.008;2022-11-20T11:28:57;33.20;;;16.75;;
27533;SDS011;14973;51.460;7.008;2022-11-20T11:31:31;37.80;;;18.40;;
27533;SDS011;14973;51.460;7.008;2022-11-20T11:34:05;36.58;;;18.27;;
27533;SDS011;14973;51.460;7.008;2022-11-20T11:36:42;34.85;;;17.67;;
27533;SDS011;14973;51.460;7.008;2022-11-20T11:39:18;37.45;;;17.55;;
27533;SDS011;14973;51.460;7.008;2022-11-20T11:41:46;31.60;;;16.27;;
27533;SDS011;14973;51.460;7.008;2022-11-20T11:44:15;28.13;;;14.65;;
27533;SDS011;14973;51.460;7.008;2022-11-20T11:47:03;33.33;;;16.70;;
27533;SDS011;14973;51.460;7.008;2022-11-20T11:49:33;33.35;;;16.58;;
27533;SDS011;14973;51.460;7.008;2022-11-20T11:54:40;34.58;;;16.13;;
27533;SDS011;14973;51.460;7.008;2022-11-20T12:00:14;36.95;;;17.50;;
27533;SDS011;14973;51.460;7.008;2022-11-20T12:08:45;35.88;;;16.65;;
27533;SDS011;14973;51.460;7.008;2022-11-20T12:11:32;37.00;;;16.13;;
27533;SDS011;14973;51.460;7.008;2022-11-20T12:14:14;33.05;;;16.08;;
27533;SDS011;14973;51.460;7.008;2022-11-20T12:16:51;53.83;;;21.85;;
27533;SDS011;14973;51.460;7.008;2022-11-20T12:19:19;39.58;;;16.55;;
27533;SDS011;14973;51.460;7.008;2022-11-20T12:24:25;40.97;;;18.23;;
27533;SDS011;14973;51.460;7.008;2022-11-20T12:30:08;39.22;;;17.38;;
27533;SDS011;14973;51.460;7.008;2022-11-20T12:41:02;40.08;;;18.80;;
27533;SDS011;14973;51.460;7.008;2022-11-20T12:44:05;41.35;;;17.98;;
27533;SDS011;14973;51.460;7.008;2022-11-20T12:47:18;37.45;;;18.52;;
27533;SDS011;14973;51.460;7.008;2022-11-20T12:58:26;40.28;;;19.35;;
27533;SDS011;14973;51.460;7.008;2022-11-20T13:04:48;42.03;;;19.65;;
27533;SDS011;14973;51.460;7.008;2022-11-20T13:07:14;41.90;;;19.98;;
27533;SDS011;14973;51.460;7.008;2022-11-20T13:09:44;43.80;;;19.40;;
27533;SDS011;14973;51.460;7.008;2022-11-20T13:12:34;44.63;;;19.77;;
27533;SDS011;14973;51.460;7.008;2022-11-20T13:18:23;43.70;;;19.70;;
27533;SDS011;14973;51.460;7.008;2022-11-20T13:20:49;45.35;;;20.70;;
27533;SDS011;14973;51.460;7.008;2022-11-20T13:23:23;47.60;;;21.35;;
27533;SDS011;14973;51.460;7.008;2022-11-20T13:25:50;43.63;;;21.00;;
27533;SDS011;14973;51.460;7.008;2022-11-20T13:28:28;44.20;;;20.13;;
27533;SDS011;14973;51.460;7.008;2022-11-20T13:30:55;50.47;;;21.00;;
27533;SDS011;14973;51.460;7.008;2022-11-20T13:33:23;47.80;;;21.40;;
27533;SDS011;14973;51.460;7.008;2022-11-20T13:36:19;50.85;;;21.77;;
27533;SDS011;14973;51.460;7.008;2022-11-20T13:38:48;43.47;;;20.58;;
27533;SDS011;14973;51.460;7.008;2022-11-20T13:43:58;67.30;;;26.85;;
27533;SDS011;14973;51.460;7.008;2022-11-20T13:46:45;49.65;;;22.67;;
27533;SDS011;14973;51.460;7.008;2022-11-20T13:49:29;48.17;;;22.42;;
27533;SDS011;14973;51.460;7.008;2022-11-20T13:52:07;48.92;;;22.05;;
27533;SDS011;14973;51.460;7.008;2022-11-20T13:55:05;47.10;;;22.60;;
27533;SDS011;14973;51.460;7.008;2022-11-20T13:57:40;49.72;;;23.27;;
27533;SDS011;14973;51.460;7.008;2022-11-20T14:00:23;57.10;;;23.60;;
27533;SDS011;14973;51.460;7.008;2022-11-20T14:03:00;51.03;;;24.60;;
27533;SDS011;14973;51.460;7.008;2022-11-20T14:05:36;59.33;;;27.90;;
27533;SDS011;14973;51.460;7.008;2022-11-20T14:08:05;54.00;;;24.77;;
27533;SDS011;14973;51.460;7.008;2022-11-20T14:10:38;59.08;;;26.23;;
27533;SDS011;14973;51.460;7.008;2022-11-20T14:13:12;69.20;;;28.02;;
27533;SDS011;14973;51.460;7.008;2022-11-20T14:15:43;63.33;;;26.17;;
27533;SDS011;14973;51.460;7.008;2022-11-20T14:18:19;51.30;;;25.30;;
27533;SDS011;14973;51.460;7.008;2022-11-20T14:20:49;56.92;;;26.27;;
27533;SDS011;14973;51.460;7.008;2022-11-20T14:23:23;63.38;;;28.83;;
27533;SDS011;14973;51.460;7.008;2022-11-20T14:25:52;57.08;;;25.23;;
27533;SDS011;14973;51.460;7.008;2022-11-20T14:28:21;52.00;;;24.73;;
27533;SDS011;14973;51.460;7.008;2022-11-20T14:30:51;60.38;;;25.92;;
27533;SDS011;14973;51.460;7.008;2022-11-20T14:33:17;56.67;;;24.55;;
27533;SDS011;14973;51.460;7.008;2022-11-20T14:35:48;59.63;;;25.33;;
27533;SDS011;14973;51.460;7.008;2022-11-20T14:38:21;58.13;;;25.27;;
27533;SDS011;14973;51.460;7.008;2022-11-20T14:40:52;52.72;;;23.35;;
27533;SDS011;14973;51.460;7.008;2022-11-20T14:43:25;53.70;;;24.27;;
27533;SDS011;14973;51.460;7.008;2022-11-20T14:45:57;61.00;;;27.42;;
27533;SDS011;14973;51.460;7.008;2022-11-20T14:48:32;64.85;;;27.60;;
27533;SDS011;14973;51.460;7.008;2022-11-20T14:51:25;62.80;;;26.98;;
27533;SDS011;14973;51.460;7.008;2022-11-20T14:53:54;63.65;;;28.40;;
27533;SDS011;14973;51.460;7.008;2022-11-20T14:56:21;66.00;;;28.90;;
27533;SDS011;14973;51.460;7.008;2022-11-20T14:58:55;68.40;;;28.90;;
27533;SDS011;14973;51.460;7.008;2022-11-20T15:01:27;63.40;;;28.60;;
27533;SDS011;14973;51.460;7.008;2022-11-20T15:03:59;67.47;;;28.45;;
27533;SDS011;14973;51.460;7.008;2022-11-20T15:06:34;65.55;;;29.30;;
27533;SDS011;14973;51.460;7.008;2022-11-20T15:09:02;64.43;;;28.40;;
27533;SDS011;14973;51.460;7.008;2022-11-20T15:11:38;75.47;;;32.67;;
27533;SDS011;14973;51.460;7.008;2022-11-20T15:14:04;73.40;;;32.45;;
27533;SDS011;14973;51.460;7.008;2022-11-20T15:16:31;73.65;;;31.58;;
27533;SDS011;14973;51.460;7.008;2022-11-20T15:18:58;70.45;;;29.42;;
27533;SDS011;14973;51.460;7.008;2022-11-20T15:21:25;65.60;;;29.17;;
27533;SDS011;14973;51.460;7.008;2022-11-20T15:23:50;78.10;;;30.55;;
27533;SDS011;14973;51.460;7.008;2022-11-20T15:26:26;76.78;;;31.05;;
27533;SDS011;14973;51.460;7.008;2022-11-20T15:28:53;72.70;;;29.67;;
27533;SDS011;14973;51.460;7.008;2022-11-20T15:31:21;74.15;;;33.63;;
27533;SDS011;14973;51.460;7.008;2022-11-20T15:33:48;80.40;;;34.83;;
27533;SDS011;14973;51.460;7.008;2022-11-20T15:36:14;65.78;;;30.10;;
27533;SDS011;14973;51.460;7.008;2022-11-20T15:38:40;68.05;;;29.98;;
27533;SDS011;14973;51.460;7.008;2022-11-20T15:41:06;74.32;;;31.38;;
27533;SDS011;14973;51.460;7.008;2022-11-20T15:43:32;69.85;;;31.17;;
27533;SDS011;14973;51.460;7.008;2022-11-20T15:46:00;74.60;;;30.77;;
27533;SDS011;14973;51.460;7.008;2022-11-20T15:48:38;84.25;;;34.10;;
27533;SDS011;14973;51.460;7.008;2022-11-20T15:53:35;75.53;;;31.88;;
27533;SDS011;14973;51.460;7.008;2022-11-20T15:56:01;73.30;;;30.35;;
27533;SDS011;14973;51.460;7.008;2022-11-20T15:58:28;75.93;;;31.83;;
27533;SDS011;14973;51.460;7.008;2022-11-20T16:00:54;70.55;;;31.23;;